createdAt,value
2022-10-12T00:01:22.055Z,10.85
2022-10-12T00:03:49.133Z,10.88
2022-10-12T00:06:20.916Z,10.84
2022-10-12T00:08:49.826Z,10.76
2022-10-12T00:11:19.259Z,10.65
2022-10-12T00:13:46.116Z,10.71
2022-10-12T00:16:15.066Z,10.65
2022-10-12T00:18:41.980Z,10.48
2022-10-12T00:21:11.678Z,10.37
2022-10-12T00:23:38.934Z,10.40
2022-10-12T00:26:08.430Z,10.35
2022-10-12T00:28:35.982Z,10.27
2022-10-12T00:31:10.989Z,10.10
2022-10-12T00:33:40.274Z,10.27
2022-10-12T00:36:13.178Z,10.31
2022-10-12T00:38:39.872Z,10.32
2022-10-12T00:41:06.558Z,10.32
2022-10-12T00:43:37.895Z,10.37
2022-10-12T00:46:31.766Z,10.22
2022-10-12T00:49:09.896Z,10.22
2022-10-12T00:51:37.842Z,10.14
2022-10-12T00:54:07.185Z,10.13
2022-10-12T00:56:36.376Z,10.08
2022-10-12T00:59:06.814Z,10.04
2022-10-12T01:01:34.762Z,9.81
2022-10-12T01:04:02.561Z,9.85
2022-10-12T01:06:30.925Z,9.72
2022-10-12T01:08:57.992Z,9.71
2022-10-12T01:11:24.971Z,9.77
2022-10-12T01:13:51.829Z,9.76
2022-10-12T01:16:36.092Z,9.73
2022-10-12T01:19:33.930Z,9.76
2022-10-12T01:22:05.103Z,9.63
2022-10-12T01:24:52.834Z,9.63
2022-10-12T01:27:39.802Z,9.68
2022-10-12T01:30:12.629Z,9.68
2022-10-12T01:33:01.056Z,9.73
2022-10-12T01:35:39.124Z,9.60
2022-10-12T01:38:24.256Z,9.62
2022-10-12T01:40:56.830Z,9.57
2022-10-12T01:43:23.654Z,9.55
2022-10-12T01:45:50.643Z,9.59
2022-10-12T01:48:17.771Z,9.64
2022-10-12T01:50:56.081Z,9.55
2022-10-12T01:53:44.506Z,9.86
2022-10-12T01:56:33.205Z,9.89
2022-10-12T01:59:10.382Z,9.86
2022-10-12T02:01:44.436Z,10.08
2022-10-12T02:04:33.034Z,10.13
2022-10-12T02:07:04.801Z,9.99
2022-10-12T02:09:34.993Z,10.03
2022-10-12T02:12:10.966Z,10.03
2022-10-12T02:14:48.744Z,10.01
2022-10-12T02:17:18.394Z,9.97
2022-10-12T02:19:50.627Z,9.70
2022-10-12T02:22:18.134Z,9.71
2022-10-12T02:24:49.125Z,9.59
2022-10-12T02:27:18.380Z,9.60
2022-10-12T02:29:47.147Z,9.62
2022-10-12T02:32:29.163Z,9.76
2022-10-12T02:35:03.629Z,9.77
2022-10-12T02:37:40.347Z,9.69
2022-10-12T02:40:15.367Z,9.53
2022-10-12T02:43:09.315Z,9.48
2022-10-12T02:45:37.956Z,9.28
2022-10-12T02:48:07.231Z,9.22
2022-10-12T02:50:34.785Z,9.11
2022-10-12T02:53:01.880Z,9.22
2022-10-12T02:55:30.768Z,9.14
2022-10-12T02:57:57.526Z,9.24
2022-10-12T03:00:24.431Z,9.43
2022-10-12T03:02:51.252Z,9.44
2022-10-12T03:05:17.949Z,9.39
2022-10-12T03:07:44.651Z,9.32
2022-10-12T03:10:11.662Z,9.35
2022-10-12T03:12:38.333Z,9.40
2022-10-12T03:15:05.496Z,9.28
2022-10-12T03:17:32.221Z,9.26
2022-10-12T03:19:58.972Z,9.25
2022-10-12T03:22:25.629Z,9.24
2022-10-12T03:24:52.335Z,9.34
2022-10-12T03:27:19.006Z,9.38
2022-10-12T03:29:45.700Z,9.36
2022-10-12T03:32:12.403Z,9.21
2022-10-12T03:34:39.072Z,9.39
2022-10-12T03:37:05.759Z,9.48
2022-10-12T03:39:32.438Z,9.32
2022-10-12T03:41:59.217Z,9.15
2022-10-12T03:44:25.968Z,9.19
2022-10-12T03:46:52.891Z,9.39
2022-10-12T03:49:19.631Z,9.51
2022-10-12T03:51:46.393Z,9.41
2022-10-12T03:54:13.092Z,9.40
2022-10-12T03:56:39.853Z,9.45
2022-10-12T03:59:06.775Z,9.54
2022-10-12T04:01:33.691Z,9.78
2022-10-12T04:04:00.437Z,9.71
2022-10-12T04:06:27.219Z,9.59
2022-10-12T04:08:53.929Z,9.35
2022-10-12T04:11:20.609Z,9.19
2022-10-12T04:13:47.389Z,9.41
2022-10-12T04:16:14.302Z,9.21
2022-10-12T04:18:41.041Z,9.28
2022-10-12T04:21:12.381Z,9.52
2022-10-12T04:23:39.459Z,9.77
2022-10-12T04:26:06.234Z,9.73
2022-10-12T04:28:33.179Z,9.72
2022-10-12T04:30:59.853Z,9.57
2022-10-12T04:33:26.582Z,9.81
2022-10-12T04:35:53.266Z,9.96
2022-10-12T04:38:19.942Z,10.04
2022-10-12T04:40:50.056Z,10.28
2022-10-12T04:43:17.150Z,10.35
2022-10-12T04:45:43.850Z,10.47
2022-10-12T04:48:10.461Z,10.51
2022-10-12T04:50:37.151Z,10.67
2022-10-12T04:53:03.802Z,10.71
2022-10-12T04:55:30.444Z,10.61
2022-10-12T04:57:57.171Z,10.70
2022-10-12T05:00:23.801Z,10.69
2022-10-12T05:02:50.710Z,10.73
2022-10-12T05:05:17.429Z,10.65
2022-10-12T05:07:44.771Z,10.61
2022-10-12T05:10:11.680Z,10.63
2022-10-12T05:12:38.730Z,10.56
2022-10-12T05:15:06.028Z,10.57
2022-10-12T05:17:32.690Z,10.51
2022-10-12T05:19:59.331Z,9.95
2022-10-12T05:22:26.118Z,10.44
2022-10-12T05:24:53.899Z,10.49
2022-10-12T05:27:21.040Z,10.60
2022-10-12T05:29:47.773Z,10.61
2022-10-12T05:32:14.560Z,10.71
2022-10-12T05:34:42.306Z,10.59
2022-10-12T05:37:09.521Z,10.62
2022-10-12T05:39:37.215Z,10.63
2022-10-12T05:42:04.000Z,10.78
2022-10-12T05:44:31.081Z,10.79
2022-10-12T05:46:57.855Z,10.89
2022-10-12T05:49:24.878Z,10.90
2022-10-12T05:51:51.545Z,10.93
2022-10-12T05:54:18.204Z,11.05
2022-10-12T05:56:45.016Z,11.03
2022-10-12T05:59:11.897Z,11.21
2022-10-12T06:01:39.290Z,11.19
2022-10-12T06:04:06.085Z,11.15
2022-10-12T06:06:32.939Z,11.34
2022-10-12T06:08:59.535Z,11.29
2022-10-12T06:11:26.286Z,11.21
2022-10-12T06:13:54.267Z,11.24
2022-10-12T06:16:20.915Z,11.26
2022-10-12T06:18:47.569Z,11.21
2022-10-12T06:21:32.355Z,11.18
2022-10-12T06:23:59.973Z,11.35
2022-10-12T06:26:26.659Z,11.58
2022-10-12T06:28:53.437Z,11.60
2022-10-12T06:31:20.182Z,11.48
2022-10-12T06:33:46.867Z,11.78
2022-10-12T06:36:13.539Z,11.75
2022-10-12T06:38:40.174Z,11.69
2022-10-12T06:41:08.531Z,11.89
2022-10-12T06:43:35.164Z,12.02
2022-10-12T06:46:02.690Z,12.15
2022-10-12T06:48:30.278Z,11.95
2022-10-12T06:50:57.023Z,11.73
2022-10-12T06:53:25.436Z,11.63
2022-10-12T06:55:52.245Z,11.71
2022-10-12T06:58:18.909Z,11.71
2022-10-12T07:00:45.931Z,11.53
2022-10-12T07:03:13.628Z,11.71
2022-10-12T07:05:40.354Z,11.93
2022-10-12T07:08:07.042Z,11.88
2022-10-12T07:10:33.735Z,11.99
2022-10-12T07:13:00.601Z,12.37
2022-10-12T07:15:27.439Z,12.48
2022-10-12T07:17:54.077Z,12.49
2022-10-12T07:20:20.810Z,12.80
2022-10-12T07:22:47.638Z,12.82
2022-10-12T07:25:14.359Z,12.50
2022-10-12T07:27:41.591Z,12.61
2022-10-12T07:30:09.247Z,12.57
2022-10-12T07:32:35.946Z,12.62
2022-10-12T07:35:02.802Z,12.73
2022-10-12T07:37:29.450Z,12.83
2022-10-12T07:40:02.649Z,13.03
2022-10-12T07:42:30.353Z,13.08
2022-10-12T07:44:57.045Z,12.92
2022-10-12T07:47:23.840Z,12.93
2022-10-12T07:49:50.603Z,13.17
2022-10-12T07:52:17.317Z,13.66
2022-10-12T07:54:44.005Z,13.84
2022-10-12T07:57:10.727Z,13.87
2022-10-12T07:59:37.441Z,14.29
2022-10-12T08:02:04.218Z,14.15
2022-10-12T08:04:31.045Z,14.38
2022-10-12T08:06:59.511Z,14.56
2022-10-12T08:09:26.234Z,14.69
2022-10-12T08:11:52.976Z,14.65
2022-10-12T08:14:19.762Z,14.84
2022-10-12T08:16:46.590Z,15.17
2022-10-12T08:19:14.238Z,15.26
2022-10-12T08:21:42.639Z,14.91
2022-10-12T08:24:10.918Z,15.07
2022-10-12T08:26:37.734Z,15.12
2022-10-12T08:29:05.894Z,15.22
2022-10-12T08:31:32.714Z,14.96
2022-10-12T08:34:00.278Z,15.24
2022-10-12T08:36:27.472Z,16.02
2022-10-12T08:38:55.594Z,16.05
2022-10-12T08:41:41.257Z,16.13
2022-10-12T08:44:30.550Z,16.10
2022-10-12T08:47:13.413Z,15.91
2022-10-12T08:49:44.155Z,15.81
2022-10-12T08:52:19.673Z,15.61
2022-10-12T08:54:46.372Z,15.32
2022-10-12T08:57:17.549Z,15.47
2022-10-12T08:59:45.803Z,15.57
2022-10-12T09:02:37.103Z,15.71
2022-10-12T09:05:09.846Z,15.67
2022-10-12T09:07:47.902Z,16.09
2022-10-12T09:10:47.357Z,16.17
2022-10-12T09:13:22.336Z,16.28
2022-10-12T09:15:57.228Z,16.19
2022-10-12T09:18:40.588Z,16.38
2022-10-12T09:21:16.792Z,16.35
2022-10-12T09:23:44.330Z,16.28
2022-10-12T09:26:13.736Z,16.27
2022-10-12T09:28:44.900Z,16.45
2022-10-12T09:31:49.371Z,16.72
2022-10-12T09:34:19.268Z,16.76
2022-10-12T09:36:46.573Z,16.69
2022-10-12T09:39:18.907Z,16.72
2022-10-12T09:41:47.981Z,16.82
2022-10-12T09:44:29.136Z,17.03
2022-10-12T09:46:59.359Z,16.99
2022-10-12T09:49:46.749Z,16.69
2022-10-12T09:52:15.483Z,16.56
2022-10-12T09:54:48.123Z,16.63
2022-10-12T09:57:29.221Z,17.01
2022-10-12T10:00:02.702Z,17.16
2022-10-12T10:02:48.531Z,17.34
2022-10-12T10:05:36.796Z,17.78
2022-10-12T10:08:19.275Z,17.58
2022-10-12T10:10:51.492Z,18.03
2022-10-12T10:13:19.273Z,18.17
2022-10-12T10:15:49.678Z,18.42
2022-10-12T10:18:43.028Z,18.40
2022-10-12T10:21:13.062Z,17.88
2022-10-12T10:23:49.824Z,17.35
2022-10-12T10:26:19.225Z,17.19
2022-10-12T10:28:51.143Z,17.02
2022-10-12T10:31:25.456Z,17.30
2022-10-12T10:34:07.725Z,17.51
2022-10-12T10:36:39.798Z,17.44
2022-10-12T10:39:14.413Z,17.38
2022-10-12T10:41:43.054Z,17.60
2022-10-12T10:44:32.391Z,17.56
2022-10-12T10:47:04.774Z,17.40
2022-10-12T10:49:44.416Z,18.05
2022-10-12T10:52:30.166Z,18.42
2022-10-12T10:55:23.516Z,18.62
2022-10-12T10:58:43.026Z,18.94
2022-10-12T11:01:20.434Z,19.19
2022-10-12T11:04:02.502Z,19.34
2022-10-12T11:06:39.929Z,19.37
2022-10-12T11:09:14.493Z,18.79
2022-10-12T11:11:44.265Z,18.59
2022-10-12T11:14:21.832Z,18.41
2022-10-12T11:17:01.110Z,18.64
2022-10-12T11:19:37.088Z,18.67
2022-10-12T11:22:11.183Z,18.60
2022-10-12T11:24:49.979Z,18.16
2022-10-12T11:27:36.323Z,17.90
2022-10-12T11:30:12.510Z,18.00
2022-10-12T11:32:43.396Z,17.90
2022-10-12T11:35:17.430Z,18.03
2022-10-12T11:38:01.453Z,18.24
2022-10-12T11:43:33.710Z,17.96
2022-10-12T11:46:05.267Z,18.05
2022-10-12T11:48:39.575Z,18.21
2022-10-12T11:51:07.008Z,18.65
2022-10-12T11:53:42.841Z,18.50
2022-10-12T11:56:15.170Z,18.46
2022-10-12T11:59:01.471Z,18.59
2022-10-12T12:01:42.966Z,18.69
2022-10-12T12:04:43.773Z,18.84
2022-10-12T12:07:22.865Z,19.16
2022-10-12T12:09:51.351Z,19.22
2022-10-12T12:12:18.349Z,18.96
2022-10-12T12:14:47.278Z,18.89
2022-10-12T12:17:19.939Z,18.83
2022-10-12T12:19:54.217Z,18.54
2022-10-12T12:22:28.929Z,18.35
2022-10-12T12:25:12.869Z,18.60
2022-10-12T12:27:48.058Z,18.75
2022-10-12T12:30:17.729Z,19.01
2022-10-12T12:33:01.201Z,19.19
2022-10-12T12:35:39.500Z,19.68
2022-10-12T12:38:17.474Z,20.39
2022-10-12T12:41:01.879Z,21.35
2022-10-12T12:43:28.516Z,21.54
2022-10-12T12:46:14.559Z,21.44
2022-10-12T12:48:46.950Z,21.69
2022-10-12T12:51:22.005Z,21.60
2022-10-12T12:53:52.573Z,21.51
2022-10-12T12:56:22.038Z,21.25
2022-10-12T12:59:22.859Z,20.67
2022-10-12T13:02:11.135Z,20.17
2022-10-12T13:05:03.096Z,19.51
2022-10-12T13:08:03.080Z,20.49
2022-10-12T13:10:52.307Z,21.93
2022-10-12T13:13:46.913Z,21.92
2022-10-12T13:17:30.056Z,22.29
2022-10-12T13:19:22.578Z,22.61
2022-10-12T13:21:52.573Z,22.71
2022-10-12T13:24:30.259Z,22.05
2022-10-12T13:27:16.621Z,21.51
2022-10-12T13:30:06.673Z,21.11
2022-10-12T13:32:48.413Z,20.98
2022-10-12T13:35:37.254Z,20.07
2022-10-12T13:38:16.085Z,20.57
2022-10-12T13:40:51.530Z,20.62
2022-10-12T13:43:48.713Z,20.19
2022-10-12T13:46:40.986Z,19.75
2022-10-12T13:49:18.106Z,19.56
2022-10-12T13:51:48.728Z,19.43
2022-10-12T13:54:36.786Z,19.64
2022-10-12T13:57:30.200Z,19.44
2022-10-12T14:00:14.641Z,19.28
2022-10-12T14:02:43.152Z,19.18
2022-10-12T14:05:19.857Z,19.11
2022-10-12T14:07:48.804Z,18.92
2022-10-12T14:10:44.988Z,19.19
2022-10-12T14:13:17.770Z,19.29
2022-10-12T14:15:44.746Z,19.04
2022-10-12T14:18:31.697Z,19.06
2022-10-12T14:21:10.714Z,18.98
2022-10-12T14:23:42.978Z,19.28
2022-10-12T14:26:26.884Z,19.43
2022-10-12T14:28:54.498Z,19.53
2022-10-12T14:31:52.183Z,19.57
2022-10-12T14:34:27.689Z,19.52
2022-10-12T14:37:04.930Z,19.54
2022-10-12T14:39:33.152Z,19.35
2022-10-12T14:42:18.050Z,19.32
2022-10-12T14:44:44.778Z,19.23
2022-10-12T14:47:21.367Z,19.26
2022-10-12T14:49:50.243Z,19.32
2022-10-12T14:52:37.581Z,19.24
2022-10-12T14:55:05.335Z,19.29
2022-10-12T14:57:32.391Z,19.29
2022-10-12T14:59:59.332Z,19.34
2022-10-12T15:02:29.432Z,19.28
2022-10-12T15:04:56.741Z,19.41
2022-10-12T15:07:25.879Z,19.46
2022-10-12T15:09:53.506Z,19.47
2022-10-12T15:12:22.442Z,19.33
2022-10-12T15:14:51.389Z,19.31
2022-10-12T15:17:19.393Z,19.39
2022-10-12T15:19:48.317Z,19.30
2022-10-12T15:22:20.942Z,19.32
2022-10-12T15:24:48.290Z,19.26
2022-10-12T15:27:15.749Z,19.22
2022-10-12T15:29:42.682Z,18.99
2022-10-12T15:32:13.876Z,18.99
2022-10-12T15:34:40.873Z,18.82
2022-10-12T15:37:09.223Z,18.87
2022-10-12T15:39:39.261Z,18.86
2022-10-12T15:42:06.043Z,19.10
2022-10-12T15:44:39.899Z,19.00
2022-10-12T15:47:06.728Z,18.97
2022-10-12T15:49:33.545Z,18.92
2022-10-12T15:52:00.443Z,18.80
2022-10-12T15:54:27.216Z,18.66
2022-10-12T15:56:53.977Z,18.55
2022-10-12T15:59:20.897Z,18.38
2022-10-12T16:01:47.712Z,18.39
2022-10-12T16:04:15.713Z,18.35
2022-10-12T16:06:42.578Z,18.01
2022-10-12T16:09:09.387Z,18.08
2022-10-12T16:11:36.191Z,17.95
2022-10-12T16:14:02.971Z,17.84
2022-10-12T16:16:31.862Z,17.75
2022-10-12T16:18:58.619Z,17.68
2022-10-12T16:21:25.366Z,17.50
2022-10-12T16:23:52.356Z,17.48
2022-10-12T16:26:19.249Z,17.29
2022-10-12T16:28:46.077Z,16.99
2022-10-12T16:31:15.887Z,17.02
2022-10-12T16:33:43.236Z,16.92
2022-10-12T16:36:15.739Z,16.82
2022-10-12T16:38:43.885Z,16.72
2022-10-12T16:41:12.415Z,16.66
2022-10-12T16:43:39.632Z,16.41
2022-10-12T16:46:06.892Z,16.51
2022-10-12T16:48:34.251Z,16.43
2022-10-12T16:51:01.202Z,16.49
2022-10-12T16:53:27.951Z,16.44
2022-10-12T16:55:54.614Z,16.35
2022-10-12T16:58:21.604Z,16.19
2022-10-12T17:00:48.522Z,16.23
2022-10-12T17:03:15.330Z,16.24
2022-10-12T17:05:42.473Z,16.24
2022-10-12T17:08:15.025Z,16.06
2022-10-12T17:10:44.087Z,15.74
2022-10-12T17:13:13.250Z,15.60
2022-10-12T17:15:41.412Z,15.60
2022-10-12T17:18:08.580Z,15.61
2022-10-12T17:20:36.790Z,15.57
2022-10-12T17:23:03.777Z,15.48
2022-10-12T17:25:30.727Z,15.41
2022-10-12T17:27:57.383Z,15.35
2022-10-12T17:30:24.301Z,15.32
2022-10-12T17:32:51.071Z,15.23
2022-10-12T17:35:17.987Z,15.13
2022-10-12T17:37:44.723Z,15.07
2022-10-12T17:40:11.684Z,15.04
2022-10-12T17:42:38.581Z,14.81
2022-10-12T17:45:06.194Z,14.71
2022-10-12T17:47:33.143Z,14.61
2022-10-12T17:49:59.931Z,14.59
2022-10-12T17:52:26.709Z,14.38
2022-10-12T17:54:53.416Z,14.28
2022-10-12T17:57:20.532Z,14.24
2022-10-12T17:59:47.533Z,14.18
2022-10-12T18:02:14.218Z,14.11
2022-10-12T18:04:40.971Z,13.97
2022-10-12T18:07:07.733Z,14.11
2022-10-12T18:09:34.538Z,13.91
2022-10-12T18:12:01.235Z,13.99
2022-10-12T18:14:28.007Z,13.93
2022-10-12T18:16:54.874Z,13.87
2022-10-12T18:19:21.754Z,13.75
2022-10-12T18:21:48.546Z,13.81
2022-10-12T18:24:17.144Z,13.81
2022-10-12T18:26:46.114Z,13.77
2022-10-12T18:29:15.715Z,13.72
2022-10-12T18:31:42.533Z,13.49
2022-10-12T18:34:09.345Z,13.61
2022-10-12T18:36:36.547Z,13.56
2022-10-12T18:39:04.495Z,13.51
2022-10-12T18:41:31.592Z,13.27
2022-10-12T18:44:00.020Z,13.34
2022-10-12T18:46:29.028Z,13.27
2022-10-12T18:48:56.204Z,13.14
2022-10-12T18:51:31.582Z,13.03
2022-10-12T18:53:59.435Z,13.11
2022-10-12T18:56:26.548Z,13.06
2022-10-12T18:58:53.533Z,12.91
2022-10-12T19:01:22.892Z,12.83
2022-10-12T19:03:50.327Z,12.83
2022-10-12T19:06:21.812Z,12.83
2022-10-12T19:08:49.382Z,12.90
2022-10-12T19:11:18.728Z,12.90
2022-10-12T19:13:52.225Z,12.69
2022-10-12T19:16:19.485Z,12.81
2022-10-12T19:18:46.321Z,12.72
2022-10-12T19:21:16.359Z,12.68
2022-10-12T19:23:44.169Z,12.76
2022-10-12T19:26:17.680Z,12.81
2022-10-12T19:28:45.439Z,12.83
2022-10-12T19:31:15.957Z,12.74
2022-10-12T19:33:42.920Z,12.67
2022-10-12T19:36:12.005Z,12.63
2022-10-12T19:38:39.019Z,12.66
2022-10-12T19:41:06.418Z,12.49
2022-10-12T19:43:34.490Z,12.47
2022-10-12T19:46:07.091Z,12.46
2022-10-12T19:48:34.839Z,12.34
2022-10-12T19:51:07.317Z,12.12
2022-10-12T19:53:34.664Z,12.21
2022-10-12T19:56:02.886Z,12.22
2022-10-12T19:58:29.695Z,12.05
2022-10-12T20:01:12.708Z,12.08
2022-10-12T20:03:42.971Z,12.15
2022-10-12T20:06:13.370Z,12.11
2022-10-12T20:08:41.596Z,11.96
2022-10-12T20:11:12.128Z,11.96
2022-10-12T20:13:42.305Z,11.69
2022-10-12T20:16:09.074Z,11.64
2022-10-12T20:18:36.114Z,11.57
2022-10-12T20:21:07.675Z,11.49
2022-10-12T20:23:36.073Z,11.55
2022-10-12T20:26:07.336Z,11.58
2022-10-12T20:28:35.297Z,11.59
2022-10-12T20:31:03.436Z,11.53
2022-10-12T20:33:30.074Z,11.41
2022-10-12T20:35:56.782Z,11.52
2022-10-12T20:38:23.690Z,11.50
2022-10-12T20:41:09.441Z,11.54
2022-10-12T20:43:40.345Z,11.51
2022-10-12T20:46:08.956Z,11.42
2022-10-12T20:48:35.760Z,11.39
2022-10-12T20:51:09.380Z,11.29
2022-10-12T20:53:37.689Z,11.21
2022-10-12T20:56:06.519Z,11.01
2022-10-12T20:58:33.325Z,10.92
2022-10-12T21:01:08.837Z,10.94
2022-10-12T21:03:36.198Z,10.98
2022-10-12T21:06:08.544Z,10.97
2022-10-12T21:08:35.716Z,11.06
2022-10-12T21:11:04.010Z,10.91
2022-10-12T21:13:36.236Z,10.99
2022-10-12T21:16:02.988Z,11.00
2022-10-12T21:18:34.024Z,11.03
2022-10-12T21:21:11.461Z,11.04
2022-10-12T21:23:43.153Z,10.98
2022-10-12T21:26:30.576Z,10.87
2022-10-12T21:29:01.191Z,10.76
2022-10-12T21:31:32.419Z,10.64
2022-10-12T21:34:01.611Z,10.68
2022-10-12T21:36:29.916Z,10.68
2022-10-12T21:38:57.355Z,10.66
2022-10-12T21:41:27.083Z,10.64
2022-10-12T21:43:55.114Z,10.56
2022-10-12T21:46:32.855Z,10.51
2022-10-12T21:49:00.818Z,10.43
2022-10-12T21:51:29.846Z,10.51
2022-10-12T21:53:56.646Z,10.52
2022-10-12T21:56:25.883Z,10.59
2022-10-12T21:58:54.098Z,10.54
2022-10-12T22:01:23.434Z,10.49
2022-10-12T22:03:54.796Z,10.37
2022-10-12T22:06:23.050Z,10.18
2022-10-12T22:09:14.860Z,10.32
2022-10-12T22:11:41.810Z,10.28
2022-10-12T22:14:16.493Z,10.23
2022-10-12T22:16:43.329Z,10.15
2022-10-12T22:19:14.309Z,10.08
2022-10-12T22:21:41.469Z,10.09
2022-10-12T22:24:08.376Z,9.97
2022-10-12T22:26:35.408Z,9.95
2022-10-12T22:29:03.091Z,9.99
2022-10-12T22:31:29.802Z,10.02
2022-10-12T22:33:56.823Z,10.07
2022-10-12T22:36:23.484Z,10.25
2022-10-12T22:38:50.313Z,10.27
2022-10-12T22:41:19.588Z,10.41
2022-10-12T22:43:51.073Z,10.47
2022-10-12T22:46:18.549Z,10.43
2022-10-12T22:48:45.253Z,10.38
2022-10-12T22:51:16.863Z,10.31
2022-10-12T22:53:43.479Z,10.27
2022-10-12T22:56:16.184Z,10.29
2022-10-12T22:58:43.275Z,10.31
2022-10-12T23:01:15.754Z,10.28
2022-10-12T23:03:42.495Z,10.14
2022-10-12T23:06:16.003Z,10.18
2022-10-12T23:08:43.207Z,10.17
2022-10-12T23:11:13.749Z,10.20
2022-10-12T23:13:41.179Z,10.13
2022-10-12T23:16:17.153Z,10.00
2022-10-12T23:18:44.074Z,10.01
2022-10-12T23:21:16.298Z,9.84
2022-10-12T23:23:44.819Z,9.94
2022-10-12T23:26:17.084Z,9.90
2022-10-12T23:28:44.643Z,9.87
2022-10-12T23:31:23.353Z,9.94
2022-10-12T23:34:10.914Z,9.94
2022-10-12T23:36:37.520Z,9.77
2022-10-12T23:39:05.220Z,9.79
2022-10-12T23:41:31.930Z,9.77
2022-10-12T23:43:58.631Z,9.76
2022-10-12T23:46:25.310Z,9.92
2022-10-12T23:48:53.795Z,10.16
2022-10-12T23:51:20.461Z,10.11
2022-10-12T23:53:47.148Z,9.91
2022-10-12T23:56:14.175Z,9.98
2022-10-12T23:58:40.938Z,10.15
